Time;durP1;ratioP1;P1;durP2;ratioP2;P2;SDS_P1;SDS_P2;PMS_P1;PMS_P2;Temp;Humidity;BMP_temperature;BMP_pressure;BME280_temperature;BME280_humidity;BME280_pressure;Samples;Min_cycle;Max_cycle;Signal;HPM_P1;HPM_P2
2023/03/26 00:01:12;;;;;;;3.53;2.53;;;7.00;92.70;;;;;;5041980;28;20439;-67
2023/03/26 00:03:40;;;;;;;3.87;1.53;;;6.90;92.90;;;;;;5037446;28;20641;-67
2023/03/26 00:06:09;;;;;;;4.67;1.90;;;6.90;93.10;;;;;;5031003;28;20846;-66
2023/03/26 00:08:37;;;;;;;5.60;2.00;;;6.70;93.20;;;;;;5039933;28;20504;-66
2023/03/26 00:11:06;;;;;;;3.63;1.67;;;6.70;93.60;;;;;;5042734;28;20810;-66
2023/03/26 00:13:33;;;;;;;2.47;1.70;;;6.70;93.50;;;;;;5042963;28;20484;-66
2023/03/26 00:16:00;;;;;;;3.30;1.60;;;6.70;93.20;;;;;;5040972;28;20459;-66
2023/03/26 00:18:30;;;;;;;2.70;1.63;;;6.80;92.70;;;;;;5043749;28;20450;-65
2023/03/26 00:20:57;;;;;;;5.87;1.93;;;6.90;92.40;;;;;;5047349;28;20973;-66
2023/03/26 00:23:25;;;;;;;3.87;1.73;;;6.90;92.40;;;;;;5043846;28;20465;-66
2023/03/26 00:25:53;;;;;;;4.57;2.10;;;6.80;92.50;;;;;;5042228;28;20832;-66
2023/03/26 00:28:20;;;;;;;2.80;1.00;;;6.90;92.50;;;;;;5040931;28;20463;-67
2023/03/26 00:30:47;;;;;;;4.20;1.40;;;6.90;92.50;;;;;;5042944;28;20566;-66
2023/03/26 00:33:16;;;;;;;2.40;1.83;;;6.80;92.60;;;;;;5042128;28;20838;-67
2023/03/26 00:35:45;;;;;;;2.33;1.20;;;6.80;92.40;;;;;;5045040;28;20428;-67
2023/03/26 00:38:12;;;;;;;2.50;1.40;;;6.80;92.50;;;;;;5041022;28;20473;-68
2023/03/26 00:40:43;;;;;;;2.90;1.70;;;6.80;92.70;;;;;;5045148;28;20451;-68
2023/03/26 00:43:17;;;;;;;4.40;1.50;;;6.80;92.80;;;;;;5039026;28;20454;-68
2023/03/26 00:45:45;;;;;;;4.30;1.53;;;6.80;92.50;;;;;;5044668;28;20499;-65
2023/03/26 00:48:12;;;;;;;2.30;1.40;;;6.80;92.70;;;;;;5044296;28;20484;-65
2023/03/26 00:50:40;;;;;;;2.57;1.47;;;6.70;92.90;;;;;;5046167;28;20444;-68
2023/03/26 00:53:10;;;;;;;4.37;2.30;;;6.70;92.50;;;;;;5045686;28;20524;-66
2023/03/26 00:55:37;;;;;;;2.00;1.60;;;6.70;92.80;;;;;;5045767;28;21144;-67
2023/03/26 00:58:04;;;;;;;5.83;2.20;;;6.70;93.10;;;;;;5030211;28;20456;-67
2023/03/26 01:00:35;;;;;;;4.03;2.07;;;6.70;93.20;;;;;;5029919;28;20436;-66
2023/03/26 01:03:03;;;;;;;4.77;2.00;;;6.70;93.10;;;;;;5029356;28;20449;-67
2023/03/26 01:05:47;;;;;;;8.10;2.63;;;6.70;93.10;;;;;;5030770;28;20451;-67
2023/03/26 01:08:25;;;;;;;4.80;2.30;;;6.70;93.20;;;;;;5031718;28;20556;-67
2023/03/26 01:11:01;;;;;;;2.70;2.00;;;6.70;92.90;;;;;;5031453;28;20499;-67
2023/03/26 01:13:30;;;;;;;4.70;1.37;;;6.80;92.60;;;;;;5031442;28;20474;-67
2023/03/26 01:16:00;;;;;;;3.20;2.10;;;6.80;92.30;;;;;;5031119;28;20440;-67
2023/03/26 01:18:32;;;;;;;2.40;1.73;;;6.80;92.20;;;;;;5031625;28;20471;-66
2023/03/26 01:21:06;;;;;;;4.40;1.50;;;6.70;92.20;;;;;;5031165;28;20951;-67
2023/03/26 01:23:40;;;;;;;3.27;1.57;;;6.60;92.70;;;;;;5031306;28;20477;-64
2023/03/26 01:26:18;;;;;;;2.30;2.07;;;6.60;93.10;;;;;;5031084;28;21194;-67
2023/03/26 01:28:45;;;;;;;5.37;1.87;;;6.70;92.90;;;;;;5031219;28;20459;-68
2023/03/26 01:31:20;;;;;;;4.57;1.90;;;6.80;92.20;;;;;;5031123;28;20463;-66
2023/03/26 01:33:54;;;;;;;2.17;1.53;;;6.80;92.40;;;;;;5031028;28;20438;-67
2023/03/26 01:36:25;;;;;;;4.43;2.43;;;6.80;92.30;;;;;;5031085;28;20441;-65
2023/03/26 01:39:00;;;;;;;4.30;1.77;;;6.80;92.30;;;;;;5031276;28;20467;-66
2023/03/26 01:41:33;;;;;;;9.27;2.17;;;6.70;92.30;;;;;;5031253;28;20456;-66
2023/03/26 01:44:06;;;;;;;5.67;2.03;;;6.80;92.20;;;;;;5029260;28;20444;-65
2023/03/26 01:46:35;;;;;;;2.80;1.67;;;6.80;92.00;;;;;;5031038;28;20472;-65
2023/03/26 01:49:03;;;;;;;3.53;1.87;;;7.00;91.70;;;;;;5029630;28;20550;-66
2023/03/26 01:51:31;;;;;;;3.80;1.60;;;7.00;91.20;;;;;;5030420;28;20447;-68
2023/03/26 01:53:59;;;;;;;4.30;2.10;;;7.10;91.30;;;;;;5029478;28;20444;-67
2023/03/26 01:56:36;;;;;;;6.77;1.77;;;7.20;91.10;;;;;;5030465;28;20954;-66
2023/03/26 01:59:22;;;;;;;6.37;1.77;;;7.20;91.00;;;;;;5030255;28;20552;-67
2023/03/26 02:01:59;;;;;;;5.70;2.10;;;7.20;90.90;;;;;;5030124;28;20443;-67
2023/03/26 02:04:33;;;;;;;2.17;1.30;;;7.30;90.70;;;;;;5030301;28;20446;-68
2023/03/26 02:07:05;;;;;;;5.07;1.57;;;7.30;90.30;;;;;;5030284;28;20477;-66
2023/03/26 02:09:37;;;;;;;4.47;1.73;;;7.40;90.50;;;;;;5030457;28;20931;-66
2023/03/26 02:12:08;;;;;;;4.13;1.47;;;7.40;90.20;;;;;;5030154;28;20449;-66
2023/03/26 02:14:35;;;;;;;6.27;1.67;;;7.40;89.90;;;;;;5029553;28;20448;-68
2023/03/26 02:17:02;;;;;;;5.00;1.60;;;7.50;89.80;;;;;;5030328;28;20444;-66
2023/03/26 02:19:29;;;;;;;5.93;1.63;;;7.50;89.80;;;;;;5031153;28;20798;-68
2023/03/26 02:21:58;;;;;;;3.90;1.97;;;7.50;89.80;;;;;;5030354;28;20456;-65
2023/03/26 02:24:25;;;;;;;3.37;1.27;;;7.50;90.30;;;;;;5029964;28;20443;-68
2023/03/26 02:26:52;;;;;;;7.83;1.60;;;7.60;89.20;;;;;;5030196;28;20485;-67
2023/03/26 02:29:21;;;;;;;5.87;1.47;;;7.60;89.10;;;;;;5029910;28;21293;-66
2023/03/26 02:31:48;;;;;;;2.50;1.30;;;7.60;89.20;;;;;;5030365;28;20451;-67
2023/03/26 02:34:14;;;;;;;6.00;1.40;;;7.70;88.40;;;;;;5029710;28;20444;-67
2023/03/26 02:36:42;;;;;;;9.23;1.93;;;7.70;88.20;;;;;;5030033;28;20435;-65
2023/03/26 02:39:10;;;;;;;5.73;1.80;;;7.70;88.00;;;;;;5029576;28;20461;-66
2023/03/26 02:41:37;;;;;;;2.00;1.20;;;7.70;88.10;;;;;;5029722;28;20452;-66
2023/03/26 02:44:04;;;;;;;6.43;1.60;;;7.70;88.00;;;;;;5029378;28;20437;-68
2023/03/26 02:46:33;;;;;;;8.60;1.30;;;7.70;88.30;;;;;;5029811;28;21044;-66
2023/03/26 02:49:00;;;;;;;4.83;1.10;;;7.70;88.80;;;;;;5029721;28;20483;-67
2023/03/26 02:51:27;;;;;;;4.77;1.30;;;7.80;88.00;;;;;;5029513;28;20440;-66
2023/03/26 02:53:54;;;;;;;4.70;1.30;;;7.70;88.10;;;;;;5029359;28;20491;-66
2023/03/26 02:56:21;;;;;;;2.30;1.47;;;7.80;87.20;;;;;;5029640;28;20767;-66
2023/03/26 02:58:48;;;;;;;8.30;1.87;;;7.80;87.80;;;;;;5029819;28;20460;-67
2023/03/26 03:01:17;;;;;;;5.03;1.70;;;7.80;87.50;;;;;;5029786;28;20447;-67
2023/03/26 03:03:47;;;;;;;4.27;1.70;;;7.80;87.80;;;;;;5029412;28;20497;-66
2023/03/26 03:06:15;;;;;;;6.50;1.20;;;7.60;87.60;;;;;;5029490;28;20970;-66
2023/03/26 03:08:44;;;;;;;3.10;1.20;;;7.60;87.30;;;;;;5029539;28;20472;-65
2023/03/26 03:11:13;;;;;;;1.87;1.20;;;7.60;88.20;;;;;;5029713;28;20439;-67
2023/03/26 03:13:40;;;;;;;3.97;1.30;;;7.70;87.00;;;;;;5029392;28;21332;-66
2023/03/26 03:16:08;;;;;;;5.10;1.67;;;7.70;86.80;;;;;;5029588;28;20813;-66
2023/03/26 03:18:35;;;;;;;3.23;1.20;;;7.70;87.10;;;;;;5029292;28;20461;-67
2023/03/26 03:21:04;;;;;;;6.33;1.60;;;7.60;87.40;;;;;;5029315;28;20459;-67
2023/03/26 03:23:31;;;;;;;4.33;1.57;;;7.70;87.90;;;;;;5029362;28;20444;-66
2023/03/26 03:25:58;;;;;;;10.97;1.87;;;7.70;87.60;;;;;;5030237;28;20447;-66
2023/03/26 03:28:25;;;;;;;4.20;1.10;;;7.70;87.70;;;;;;5033100;28;20982;-66
2023/03/26 03:30:52;;;;;;;3.10;1.63;;;7.70;87.40;;;;;;5033381;28;20443;-66
2023/03/26 03:33:20;;;;;;;2.27;1.40;;;7.80;86.90;;;;;;5032874;28;20447;-67
2023/03/26 03:35:48;;;;;;;3.80;1.70;;;7.80;87.20;;;;;;5033125;28;20506;-66
2023/03/26 03:38:16;;;;;;;2.80;1.60;;;7.80;87.80;;;;;;5033445;28;20464;-66
2023/03/26 03:40:44;;;;;;;4.53;1.43;;;7.70;87.40;;;;;;5033198;28;20447;-66
2023/03/26 03:43:11;;;;;;;3.30;1.40;;;7.70;87.90;;;;;;5032680;28;20456;-67
2023/03/26 03:45:37;;;;;;;2.47;1.60;;;7.80;87.50;;;;;;5032965;28;20946;-66
2023/03/26 03:48:05;;;;;;;2.97;2.53;;;7.80;87.30;;;;;;5032823;28;20492;-67
2023/03/26 03:50:31;;;;;;;4.43;1.40;;;7.70;88.30;;;;;;5032862;28;20491;-66
2023/03/26 03:52:59;;;;;;;6.40;1.50;;;7.70;88.50;;;;;;5032994;28;20444;-66
2023/03/26 03:55:28;;;;;;;4.67;1.87;;;7.70;89.30;;;;;;5032850;28;21168;-66
2023/03/26 03:57:57;;;;;;;4.37;1.30;;;7.70;89.10;;;;;;5032727;28;20460;-67
2023/03/26 04:00:24;;;;;;;8.00;1.70;;;7.80;88.70;;;;;;5033112;28;20444;-67
2023/03/26 04:02:53;;;;;;;3.80;1.50;;;7.80;89.40;;;;;;5032261;28;20441;-66
2023/03/26 04:05:20;;;;;;;3.13;1.40;;;7.90;89.30;;;;;;5033087;28;20459;-68
2023/03/26 04:07:47;;;;;;;7.80;1.90;;;7.90;88.50;;;;;;5032405;28;20538;-67
2023/03/26 04:10:15;;;;;;;4.07;1.30;;;7.90;88.20;;;;;;5032856;28;20451;-66
2023/03/26 04:12:44;;;;;;;6.07;2.27;;;7.80;88.70;;;;;;5032224;28;20444;-66
2023/03/26 04:15:11;;;;;;;7.33;2.90;;;7.80;89.40;;;;;;5032684;28;20943;-66
2023/03/26 04:17:41;;;;;;;5.43;1.50;;;7.80;89.20;;;;;;5032604;28;20453;-66
2023/03/26 04:20:13;;;;;;;3.00;1.60;;;7.80;88.70;;;;;;5032973;28;20463;-66
2023/03/26 04:22:41;;;;;;;2.67;1.37;;;7.80;89.20;;;;;;5032089;28;20484;-68
2023/03/26 04:25:09;;;;;;;5.53;1.70;;;7.80;90.00;;;;;;5032075;28;20446;-66
2023/03/26 04:27:36;;;;;;;7.83;1.87;;;7.80;89.40;;;;;;5032180;28;20488;-66
2023/03/26 04:30:08;;;;;;;6.17;1.63;;;7.70;88.50;;;;;;5032418;28;20445;-66
2023/03/26 04:32:37;;;;;;;5.20;1.53;;;7.70;89.40;;;;;;5032144;28;20446;-66
2023/03/26 04:35:05;;;;;;;4.10;1.60;;;7.70;88.60;;;;;;5032180;28;20439;-66
2023/03/26 04:37:34;;;;;;;7.40;2.10;;;7.80;88.10;;;;;;5031496;28;20519;-66
2023/03/26 04:40:05;;;;;;;3.20;1.50;;;7.90;86.90;;;;;;5031488;28;20447;-67
2023/03/26 04:42:32;;;;;;;4.77;2.40;;;8.00;86.50;;;;;;5032021;28;20443;-67
2023/03/26 04:45:01;;;;;;;5.47;1.90;;;8.00;86.90;;;;;;5032267;28;21104;-67
2023/03/26 04:47:29;;;;;;;4.80;1.60;;;7.90;86.70;;;;;;5031789;28;20476;-66
2023/03/26 04:49:56;;;;;;;4.60;1.40;;;8.00;86.70;;;;;;5031916;28;20797;-67
2023/03/26 04:52:23;;;;;;;5.70;2.10;;;8.00;87.40;;;;;;5031365;28;20440;-66
2023/03/26 04:54:50;;;;;;;3.00;1.30;;;8.00;87.10;;;;;;5031664;28;20461;-65
2023/03/26 04:57:23;;;;;;;4.13;2.00;;;8.00;86.10;;;;;;5031700;28;20450;-66
2023/03/26 04:59:50;;;;;;;5.60;2.00;;;8.00;86.10;;;;;;5031921;28;20437;-67
2023/03/26 05:02:17;;;;;;;4.63;1.70;;;8.00;86.50;;;;;;5031556;28;20445;-65
2023/03/26 05:04:45;;;;;;;4.67;2.00;;;8.00;87.50;;;;;;5031535;28;20441;-66
2023/03/26 05:07:14;;;;;;;2.87;1.20;;;8.00;87.30;;;;;;5031023;28;20985;-66
2023/03/26 05:09:41;;;;;;;4.87;1.47;;;8.00;86.90;;;;;;5031693;28;20445;-68
2023/03/26 05:12:08;;;;;;;5.03;1.57;;;8.00;86.10;;;;;;5031370;28;21100;-66
2023/03/26 05:14:35;;;;;;;2.30;1.30;;;8.00;86.90;;;;;;5030970;28;20452;-66
2023/03/26 05:17:04;;;;;;;7.37;1.80;;;8.00;86.20;;;;;;5031645;28;20437;-66
2023/03/26 05:19:31;;;;;;;4.40;1.77;;;8.10;86.60;;;;;;5031825;28;20799;-66
2023/03/26 05:21:59;;;;;;;6.60;1.93;;;8.00;86.50;;;;;;5031641;28;20441;-65
2023/03/26 05:24:27;;;;;;;3.83;1.70;;;8.10;86.00;;;;;;5031284;28;20445;-66
2023/03/26 05:26:54;;;;;;;2.90;1.70;;;8.10;86.40;;;;;;5031223;28;20544;-67
2023/03/26 05:29:23;;;;;;;5.43;1.70;;;8.10;86.70;;;;;;5031181;28;20457;-68
2023/03/26 05:31:49;;;;;;;3.57;1.70;;;8.10;86.50;;;;;;5031199;28;20449;-66
2023/03/26 05:34:16;;;;;;;4.10;1.63;;;8.10;85.70;;;;;;5030430;28;20796;-66
2023/03/26 05:36:43;;;;;;;4.00;1.83;;;8.10;86.00;;;;;;5031287;28;20441;-67
2023/03/26 05:39:13;;;;;;;5.43;1.83;;;8.10;85.20;;;;;;5031134;28;20496;-67
2023/03/26 05:41:39;;;;;;;2.93;1.70;;;8.20;85.10;;;;;;5030924;28;20712;-66
2023/03/26 05:44:06;;;;;;;4.37;2.47;;;8.10;85.50;;;;;;5031087;28;20472;-68
2023/03/26 05:46:33;;;;;;;8.10;2.10;;;8.10;85.90;;;;;;5031050;28;20452;-67
2023/03/26 05:49:00;;;;;;;7.40;1.97;;;8.10;86.00;;;;;;5030455;28;20486;-66
2023/03/26 05:51:27;;;;;;;8.70;1.90;;;8.20;85.40;;;;;;5030830;28;20459;-67
2023/03/26 05:53:53;;;;;;;3.80;1.40;;;8.10;85.50;;;;;;5030592;28;20441;-66
2023/03/26 05:56:21;;;;;;;3.60;1.87;;;8.20;85.60;;;;;;5030586;28;20453;-67
2023/03/26 05:58:48;;;;;;;4.53;1.50;;;8.30;85.20;;;;;;5030548;28;20465;-65
2023/03/26 06:01:17;;;;;;;4.70;1.90;;;8.30;85.40;;;;;;5030643;28;20441;-66
2023/03/26 06:03:45;;;;;;;6.83;2.00;;;8.40;83.40;;;;;;5029878;28;21107;-68
2023/03/26 06:06:15;;;;;;;7.50;1.80;;;8.40;82.80;;;;;;5030781;28;20454;-64
2023/03/26 06:08:42;;;;;;;5.13;2.13;;;8.40;83.20;;;;;;5030526;28;20489;-64
2023/03/26 06:11:11;;;;;;;5.97;1.80;;;8.40;83.10;;;;;;5030868;28;20437;-68
2023/03/26 06:13:39;;;;;;;5.00;1.57;;;8.40;82.90;;;;;;5030297;28;20448;-67
2023/03/26 06:16:07;;;;;;;5.50;1.93;;;8.20;84.80;;;;;;5030633;28;20778;-65
2023/03/26 06:18:34;;;;;;;3.17;1.77;;;8.10;88.60;;;;;;5030484;28;20457;-68
2023/03/26 06:21:01;;;;;;;7.07;1.97;;;8.00;88.90;;;;;;5030264;28;20444;-65
2023/03/26 06:23:28;;;;;;;3.97;2.00;;;7.90;89.90;;;;;;5030171;28;20798;-63
2023/03/26 06:25:55;;;;;;;5.33;1.83;;;7.80;88.70;;;;;;5030272;28;20440;-65
2023/03/26 06:28:22;;;;;;;2.50;1.37;;;7.80;89.50;;;;;;5030090;28;20477;-66
2023/03/26 06:30:51;;;;;;;3.07;1.50;;;7.90;90.20;;;;;;5029783;28;20437;-66
2023/03/26 06:33:17;;;;;;;5.80;2.20;;;7.90;90.00;;;;;;5029811;28;20437;-66
2023/03/26 06:35:45;;;;;;;5.90;2.73;;;7.90;90.00;;;;;;5029992;28;20444;-66
2023/03/26 06:38:12;;;;;;;6.00;1.70;;;8.00;89.70;;;;;;5030125;28;20449;-66
2023/03/26 06:40:38;;;;;;;10.63;2.13;;;8.10;87.80;;;;;;5029844;28;20452;-66
2023/03/26 06:43:05;;;;;;;2.70;1.70;;;8.10;88.50;;;;;;5029655;28;20449;-66
2023/03/26 06:45:33;;;;;;;4.93;1.80;;;8.10;89.40;;;;;;5029789;28;20441;-66
2023/03/26 06:48:01;;;;;;;3.47;1.70;;;8.10;89.10;;;;;;5029920;28;20577;-67
2023/03/26 06:50:28;;;;;;;8.40;2.60;;;8.20;88.60;;;;;;5030223;28;20456;-66
2023/03/26 06:52:55;;;;;;;4.03;2.47;;;8.20;87.70;;;;;;5029482;28;20444;-67
2023/03/26 06:55:23;;;;;;;6.43;2.80;;;8.30;86.60;;;;;;5030054;28;20452;-66
2023/03/26 06:57:51;;;;;;;4.87;2.00;;;8.20;87.50;;;;;;5029528;28;20962;-67
2023/03/26 07:00:18;;;;;;;6.07;1.80;;;8.30;86.40;;;;;;5029798;28;20766;-65
2023/03/26 07:02:45;;;;;;;7.90;2.47;;;8.30;84.40;;;;;;5029101;28;20446;-67
2023/03/26 07:05:14;;;;;;;7.60;2.20;;;8.30;85.30;;;;;;5029931;28;20441;-66
2023/03/26 07:07:41;;;;;;;3.73;1.93;;;8.30;85.70;;;;;;5029689;28;20473;-66
2023/03/26 07:10:09;;;;;;;3.27;1.90;;;8.20;86.00;;;;;;5029941;28;20441;-66
2023/03/26 07:12:36;;;;;;;4.40;1.43;;;8.30;86.20;;;;;;5029613;28;20942;-66
2023/03/26 07:15:04;;;;;;;2.67;1.83;;;8.30;84.30;;;;;;5029429;28;20935;-66
2023/03/26 07:17:31;;;;;;;5.27;1.90;;;8.30;83.60;;;;;;5029964;28;20484;-66
2023/03/26 07:19:58;;;;;;;2.70;1.43;;;8.30;84.70;;;;;;5029507;28;20452;-66
2023/03/26 07:22:26;;;;;;;4.60;1.90;;;8.40;84.10;;;;;;5029473;28;20437;-65
2023/03/26 07:24:54;;;;;;;7.37;2.10;;;8.40;84.30;;;;;;5029738;28;20449;-66
2023/03/26 07:27:35;;;;;;;2.37;1.60;;;8.30;84.20;;;;;;5029769;28;20465;-67
2023/03/26 07:30:07;;;;;;;7.30;1.87;;;8.30;85.80;;;;;;5030517;28;20455;-66
2023/03/26 07:32:42;;;;;;;3.40;1.27;;;8.30;84.30;;;;;;5030366;28;20525;-66
2023/03/26 07:35:17;;;;;;;6.60;2.10;;;8.30;82.80;;;;;;5030511;28;20447;-66
2023/03/26 07:37:59;;;;;;;4.03;1.47;;;8.40;82.80;;;;;;5030540;28;20467;-66
2023/03/26 07:40:43;;;;;;;3.63;2.00;;;8.40;85.70;;;;;;5029755;28;20455;-66
2023/03/26 07:43:22;;;;;;;4.43;1.33;;;8.30;85.70;;;;;;5030109;28;20444;-65
2023/03/26 07:45:51;;;;;;;3.97;1.50;;;8.30;84.40;;;;;;5030448;28;20444;-66
2023/03/26 07:48:24;;;;;;;4.40;1.80;;;8.20;85.00;;;;;;5030833;28;20893;-66
2023/03/26 07:50:51;;;;;;;8.43;2.67;;;8.20;86.40;;;;;;5031126;28;20446;-66
2023/03/26 07:53:20;;;;;;;3.07;1.70;;;8.00;88.20;;;;;;5030337;28;20807;-66
2023/03/26 07:55:53;;;;;;;3.87;1.70;;;7.90;90.50;;;;;;5027877;28;20456;-66
2023/03/26 07:58:48;;;;;;;7.80;1.83;;;7.90;90.30;;;;;;5020656;28;20483;-66
2023/03/26 08:01:20;;;;;;;6.17;2.20;;;7.90;90.70;;;;;;5022693;28;20455;-66
2023/03/26 08:04:03;;;;;;;3.90;2.00;;;7.90;90.60;;;;;;5022367;28;20428;-68
2023/03/26 08:06:34;;;;;;;7.20;3.00;;;7.80;91.50;;;;;;5021182;28;20442;-68
2023/03/26 08:09:13;;;;;;;5.47;2.50;;;7.80;91.90;;;;;;5021662;28;20481;-68
2023/03/26 08:11:49;;;;;;;5.97;2.30;;;7.80;92.40;;;;;;5025503;28;20442;-66
2023/03/26 08:14:26;;;;;;;4.53;3.30;;;7.80;91.80;;;;;;5032018;28;20780;-66
2023/03/26 08:16:56;;;;;;;4.87;2.27;;;7.80;92.40;;;;;;5025190;28;20896;-65
2023/03/26 08:19:37;;;;;;;7.80;2.30;;;7.90;92.50;;;;;;5016039;28;20842;-67
2023/03/26 08:22:11;;;;;;;5.60;2.00;;;7.90;93.10;;;;;;5013350;28;20453;-67
2023/03/26 08:24:45;;;;;;;5.00;2.70;;;8.00;92.90;;;;;;5013417;28;20450;-66
2023/03/26 08:27:20;;;;;;;11.93;2.63;;;7.90;93.20;;;;;;5013047;28;20452;-66
2023/03/26 08:29:56;;;;;;;3.73;2.13;;;8.00;93.60;;;;;;5013590;28;20490;-66
2023/03/26 08:32:24;;;;;;;5.37;2.30;;;7.90;93.90;;;;;;5013197;28;20473;-66
2023/03/26 08:34:51;;;;;;;4.73;2.30;;;8.10;93.80;;;;;;5013585;28;20449;-66
2023/03/26 08:37:18;;;;;;;6.27;2.87;;;8.10;94.00;;;;;;5012578;28;20499;-67
2023/03/26 08:39:46;;;;;;;6.97;2.43;;;8.20;93.30;;;;;;5012941;28;20461;-68
2023/03/26 08:42:55;;;;;;;5.63;2.47;;;8.30;93.40;;;;;;5012773;28;20477;-68
2023/03/26 08:45:42;;;;;;;6.43;2.27;;;8.20;93.40;;;;;;5005415;28;20462;-67
2023/03/26 08:49:09;;;;;;;12.17;2.47;;;8.20;93.00;;;;;;5012471;28;20585;-68
2023/03/26 08:52:18;;;;;;;3.03;2.30;;;8.20;93.90;;;;;;5012744;28;20442;-67
2023/03/26 08:55:19;;;;;;;6.07;3.20;;;8.20;94.10;;;;;;4950929;29;20873;-68
2023/03/26 08:58:17;;;;;;;9.50;3.23;;;8.20;93.80;;;;;;4928788;29;20557;-68
2023/03/26 09:01:05;;;;;;;2.73;2.10;;;8.20;94.60;;;;;;5016524;28;20441;-67
2023/03/26 09:04:05;;;;;;;4.47;2.40;;;8.40;94.90;;;;;;5031140;28;20451;-68
2023/03/26 09:07:06;;;;;;;5.37;2.57;;;8.40;93.60;;;;;;5032237;28;20462;-67
2023/03/26 09:10:00;;;;;;;5.87;2.97;;;8.60;93.50;;;;;;5030799;28;20538;-68
2023/03/26 09:12:50;;;;;;;4.50;2.50;;;8.70;92.90;;;;;;5029218;28;20500;-67
2023/03/26 09:15:58;;;;;;;7.33;2.87;;;8.70;93.20;;;;;;5030652;28;20553;-68
2023/03/26 09:18:49;;;;;;;5.50;2.30;;;9.00;94.50;;;;;;5029646;28;20472;-67
2023/03/26 09:21:52;;;;;;;4.67;2.97;;;9.50;91.90;;;;;;5029031;28;20445;-66
2023/03/26 09:24:58;;;;;;;7.00;2.60;;;9.50;93.00;;;;;;5027253;28;20454;-66
2023/03/26 09:27:37;;;;;;;6.53;2.40;;;9.30;92.10;;;;;;5005140;28;20465;-66
2023/03/26 09:30:37;;;;;;;5.57;2.43;;;9.20;92.10;;;;;;5030180;28;21023;-67
2023/03/26 09:33:27;;;;;;;6.30;2.90;;;9.10;92.20;;;;;;5030563;28;20448;-67
2023/03/26 09:36:02;;;;;;;7.33;2.30;;;9.10;93.60;;;;;;5031148;28;20441;-65
2023/03/26 09:38:41;;;;;;;7.07;2.30;;;9.30;93.00;;;;;;5030660;28;20473;-66
2023/03/26 09:41:14;;;;;;;5.37;2.73;;;9.60;92.60;;;;;;5011424;28;20466;-67
2023/03/26 09:44:06;;;;;;;5.87;2.67;;;9.90;92.40;;;;;;5010373;28;20964;-68
2023/03/26 09:46:42;;;;;;;4.53;2.93;;;10.30;91.70;;;;;;5011272;28;20811;-67
2023/03/26 09:49:35;;;;;;;10.77;3.30;;;10.50;90.10;;;;;;5010893;28;20490;-65
2023/03/26 09:52:41;;;;;;;6.33;2.50;;;10.80;91.70;;;;;;5011308;28;20457;-66
2023/03/26 09:55:28;;;;;;;4.10;1.47;;;11.70;87.70;;;;;;5011530;28;20456;-67
2023/03/26 09:58:15;;;;;;;2.77;1.13;;;12.30;86.20;;;;;;5011465;28;21004;-68
2023/03/26 10:00:48;;;;;;;3.27;1.87;;;12.70;82.40;;;;;;5030421;28;20437;-66
2023/03/26 10:03:33;;;;;;;5.33;1.40;;;12.30;81.80;;;;;;5029738;28;20450;-66
2023/03/26 10:06:20;;;;;;;1.80;1.17;;;12.20;83.20;;;;;;5030439;28;20441;-67
2023/03/26 10:09:07;;;;;;;2.17;1.40;;;12.20;80.30;;;;;;5029058;28;21021;-68
2023/03/26 10:12:03;;;;;;;1.17;0.90;;;12.50;82.20;;;;;;5029855;28;20455;-66
2023/03/26 10:14:37;;;;;;;2.13;1.37;;;12.60;79.10;;;;;;5030468;28;20445;-65
2023/03/26 10:17:20;;;;;;;3.30;1.10;;;12.50;78.00;;;;;;5029479;28;20448;-65
2023/03/26 10:19:59;;;;;;;2.20;1.23;;;12.40;81.50;;;;;;5030271;28;20445;-66
2023/03/26 10:22:43;;;;;;;2.50;1.37;;;12.70;80.30;;;;;;5024456;28;20447;-66
2023/03/26 10:25:55;;;;;;;2.90;1.43;;;13.30;77.70;;;;;;5026650;28;20842;-66
2023/03/26 10:28:38;;;;;;;2.53;1.20;;;13.70;72.60;;;;;;5029770;28;20471;-66
2023/03/26 10:31:33;;;;;;;2.93;1.10;;;13.80;72.00;;;;;;5029978;28;20451;-65
2023/03/26 10:34:09;;;;;;;3.10;1.30;;;13.50;69.70;;;;;;5030152;28;20446;-65
2023/03/26 10:36:38;;;;;;;3.50;1.27;;;13.30;70.10;;;;;;5042544;28;20442;-66
2023/03/26 10:39:27;;;;;;;2.37;0.90;;;13.10;70.00;;;;;;5029272;28;20493;-66
2023/03/26 10:42:02;;;;;;;2.37;1.10;;;13.40;65.30;;;;;;5029213;28;20464;-65
2023/03/26 10:44:55;;;;;;;2.90;1.00;;;12.80;64.80;;;;;;5028727;28;20447;-66
2023/03/26 10:47:52;;;;;;;1.43;0.90;;;12.60;64.00;;;;;;5030901;28;20469;-68
2023/03/26 10:50:42;;;;;;;4.90;1.20;;;12.40;66.70;;;;;;5018645;28;20531;-67
2023/03/26 10:53:13;;;;;;;2.53;1.43;;;12.20;67.30;;;;;;5019694;28;20442;-67
2023/03/26 10:55:44;;;;;;;4.27;1.07;;;12.30;65.60;;;;;;5020891;28;20447;-67
2023/03/26 10:58:17;;;;;;;2.40;0.73;;;12.90;63.20;;;;;;5019843;28;20528;-67
2023/03/26 11:00:50;;;;;;;3.90;1.40;;;13.10;58.30;;;;;;5019190;28;20437;-67
2023/03/26 11:03:43;;;;;;;1.10;0.70;;;13.20;58.50;;;;;;5018259;28;20449;-69
2023/03/26 11:06:26;;;;;;;1.60;0.80;;;13.10;57.00;;;;;;5019934;28;20500;-68
2023/03/26 11:08:59;;;;;;;2.73;1.13;;;13.40;56.30;;;;;;5019935;28;20502;-69
2023/03/26 11:11:31;;;;;;;1.80;0.70;;;13.90;56.50;;;;;;5009987;28;20938;-67
2023/03/26 11:14:04;;;;;;;1.60;0.83;;;14.10;53.50;;;;;;5009995;28;20545;-68
2023/03/26 11:16:48;;;;;;;2.07;0.70;;;14.40;53.50;;;;;;5009997;28;21111;-67
2023/03/26 11:19:21;;;;;;;2.70;1.40;;;14.70;52.50;;;;;;5009877;28;20472;-68
2023/03/26 11:21:55;;;;;;;0.80;0.60;;;14.60;49.20;;;;;;5009689;28;20449;-68
2023/03/26 11:24:39;;;;;;;2.10;0.63;;;15.00;50.30;;;;;;5009739;28;20847;-68
2023/03/26 11:27:13;;;;;;;1.53;0.90;;;15.40;50.30;;;;;;5027341;28;20452;-67
2023/03/26 11:29:48;;;;;;;1.97;0.77;;;15.20;48.10;;;;;;5024151;28;20487;-67
2023/03/26 11:32:19;;;;;;;2.63;0.77;;;14.60;46.80;;;;;;5016967;28;20457;-66
2023/03/26 11:34:58;;;;;;;1.77;0.87;;;14.60;49.60;;;;;;5020750;28;20472;-69
2023/03/26 11:37:32;;;;;;;2.10;0.67;;;15.40;49.30;;;;;;5029463;28;20469;-68
2023/03/26 11:40:04;;;;;;;1.10;0.60;;;16.20;45.90;;;;;;5030653;28;21009;-66
2023/03/26 11:42:33;;;;;;;3.13;0.67;;;15.70;45.60;;;;;;5028856;28;20441;-69
2023/03/26 11:45:03;;;;;;;2.60;1.30;;;15.20;46.60;;;;;;5026832;28;20464;-68
2023/03/26 11:47:35;;;;;;;2.30;0.80;;;14.80;46.90;;;;;;5031294;28;20464;-69
2023/03/26 11:50:04;;;;;;;5.77;1.23;;;14.30;47.30;;;;;;5015871;28;20484;-68
2023/03/26 11:52:32;;;;;;;0.93;0.83;;;14.20;47.30;;;;;;5033214;28;20451;-68
2023/03/26 11:54:59;;;;;;;1.33;0.60;;;13.90;47.10;;;;;;5032083;28;20446;-69
2023/03/26 11:57:31;;;;;;;2.60;0.83;;;13.70;48.30;;;;;;5033435;28;20471;-69
2023/03/26 12:00:06;;;;;;;1.00;0.70;;;13.50;49.90;;;;;;5032556;28;20472;-68
2023/03/26 12:02:39;;;;;;;3.63;0.97;;;13.10;52.30;;;;;;5033472;28;20472;-67
2023/03/26 12:05:19;;;;;;;1.10;0.73;;;12.70;57.30;;;;;;5045780;28;20926;-69
2023/03/26 12:07:51;;;;;;;2.97;0.80;;;12.00;62.30;;;;;;5018808;28;20467;-67
2023/03/26 12:10:27;;;;;;;3.50;1.30;;;11.50;66.70;;;;;;5033018;28;20481;-68
2023/03/26 12:12:56;;;;;;;1.60;1.00;;;11.20;76.10;;;;;;5032245;28;20960;-68
2023/03/26 12:15:24;;;;;;;2.60;1.03;;;10.70;79.80;;;;;;5032570;28;20449;-68
2023/03/26 12:17:57;;;;;;;1.93;1.10;;;10.30;82.40;;;;;;5032453;28;20473;-69
2023/03/26 12:20:43;;;;;;;1.40;0.80;;;9.90;86.90;;;;;;5032701;28;20445;-69
2023/03/26 12:23:36;;;;;;;2.40;0.80;;;9.70;88.30;;;;;;5032373;28;20495;-68
2023/03/26 12:26:14;;;;;;;2.80;1.17;;;10.00;90.40;;;;;;5031134;28;20453;-68
2023/03/26 12:28:45;;;;;;;2.17;0.80;;;11.00;87.00;;;;;;5034866;28;20828;-69
2023/03/26 12:31:16;;;;;;;4.20;1.10;;;11.90;79.30;;;;;;5032352;28;20471;-69
2023/03/26 12:33:43;;;;;;;2.03;1.83;;;12.90;75.60;;;;;;5043810;28;20441;-68
2023/03/26 12:36:25;;;;;;;1.50;0.63;;;14.10;78.60;;;;;;5032418;28;20499;-68
2023/03/26 12:38:53;;;;;;;2.73;0.93;;;14.40;63.00;;;;;;5031830;28;20524;-68
2023/03/26 12:41:32;;;;;;;2.60;0.97;;;15.00;61.70;;;;;;5032682;28;20464;-68
2023/03/26 12:44:21;;;;;;;3.67;1.23;;;15.60;62.40;;;;;;5032261;28;20448;-68
2023/03/26 12:46:53;;;;;;;1.67;1.00;;;15.10;58.80;;;;;;5032715;28;20554;-66
2023/03/26 12:49:21;;;;;;;2.57;1.20;;;13.70;63.40;;;;;;5032771;28;20496;-68
2023/03/26 12:51:51;;;;;;;2.77;0.90;;;12.90;69.20;;;;;;5032669;28;20458;-67
2023/03/26 12:54:31;;;;;;;1.77;1.10;;;12.40;67.90;;;;;;5032358;28;20453;-68
2023/03/26 12:57:09;;;;;;;1.67;1.00;;;12.30;68.00;;;;;;5032180;28;20484;-67
2023/03/26 12:59:47;;;;;;;3.87;1.47;;;13.40;66.40;;;;;;5031222;28;20444;-68
2023/03/26 13:02:31;;;;;;;2.30;1.00;;;15.30;59.10;;;;;;5032247;28;20502;-67
2023/03/26 13:05:08;;;;;;;1.50;0.90;;;17.30;53.00;;;;;;5032064;28;20445;-68
2023/03/26 13:07:50;;;;;;;1.63;0.70;;;18.50;48.90;;;;;;5031751;28;20562;-66
2023/03/26 13:10:37;;;;;;;1.67;0.80;;;19.10;46.90;;;;;;5031855;28;20485;-74
2023/03/26 13:13:18;;;;;;;2.40;1.00;;;20.30;47.60;;;;;;5030151;28;20488;-67
2023/03/26 13:15:48;;;;;;;2.63;1.00;;;21.60;44.30;;;;;;5024506;28;20500;-66
2023/03/26 13:18:27;;;;;;;1.60;0.90;;;21.00;39.60;;;;;;5023950;28;20838;-66
2023/03/26 13:21:00;;;;;;;1.10;1.00;;;19.00;45.30;;;;;;5042313;28;21009;-68
2023/03/26 13:23:39;;;;;;;0.93;0.83;;;16.80;48.80;;;;;;5041578;28;20527;-68
2023/03/26 13:26:17;;;;;;;2.50;0.80;;;15.60;49.70;;;;;;5044664;28;20462;-67
2023/03/26 13:28:52;;;;;;;2.70;1.10;;;14.80;53.10;;;;;;5041182;28;20463;-65